Orbital elements of FENGYUN 1C DEB
| Launched | 9 May 1999 |
| Flight ended | – |
| Launch site | Taiyuan Space Center, PRC |
| Owner | People's Republic of China |
| NORAD ID | 36707 |
| Date fetched |
Epoch osculation |
Inc. [°] |
Ecc. | RA asc node [hr] |
Arg Peri. [°] |
Mean anom [°] |
Mean motion [rev/day] |
Abs. mag |
| Date fetched |
Epoch osculation |
Inc. [°] |
Ecc. | RA asc node [hr] |
Arg Peri. [°] |
Mean anom [°] |
Mean motion [rev/day] |
Abs. mag |
| 2026 May 09 17:57 | 2026 May 04 08:44:52 | 98.7336 | 0.00501 | 11.5480 | 74.2004 | 286.4682 | 14.17780 | – |
| 2026 May 08 17:57 | 2026 May 04 08:44:52 | 98.7336 | 0.00501 | 11.5480 | 74.2004 | 286.4682 | 14.17780 | – |
| 2026 May 07 17:58 | 2026 May 04 08:44:52 | 98.7336 | 0.00501 | 11.5480 | 74.2004 | 286.4682 | 14.17780 | – |
| 2026 May 06 17:57 | 2026 May 04 08:44:52 | 98.7336 | 0.00501 | 11.5480 | 74.2004 | 286.4682 | 14.17780 | – |
| 2026 May 05 17:57 | 2026 May 04 08:44:52 | 98.7336 | 0.00501 | 11.5480 | 74.2004 | 286.4682 | 14.17780 | – |
| 2026 May 04 17:57 | 2026 Apr 27 20:55:23 | 98.7334 | 0.00504 | 11.1222 | 92.2883 | 286.4682 | 14.17780 | – |
| 2026 May 03 17:57 | 2026 Apr 27 20:55:23 | 98.7334 | 0.00504 | 11.1222 | 92.2883 | 286.4682 | 14.17780 | – |
| 2026 May 02 17:57 | 2026 Apr 27 20:55:23 | 98.7334 | 0.00504 | 11.1222 | 92.2883 | 286.4682 | 14.17780 | – |
| 2026 May 01 17:56 | 2026 Apr 27 20:55:23 | 98.7334 | 0.00504 | 11.1222 | 92.2883 | 286.4682 | 14.17780 | – |
| 2026 Apr 30 17:56 | 2026 Apr 27 20:55:23 | 98.7334 | 0.00504 | 11.1222 | 92.2883 | 286.4682 | 14.17780 | – |
| 2026 Apr 29 17:57 | 2026 Apr 22 20:39:55 | 98.7342 | 0.00505 | 10.7937 | 106.2135 | 286.4682 | 14.17780 | – |
| 2026 Apr 28 17:56 | 2026 Apr 22 20:39:55 | 98.7342 | 0.00505 | 10.7937 | 106.2135 | 286.4682 | 14.17780 | – |
| 2026 Apr 27 17:58 | 2026 Apr 22 20:39:55 | 98.7342 | 0.00505 | 10.7937 | 106.2135 | 286.4682 | 14.17780 | – |
| 2026 Apr 26 17:58 | 2026 Apr 22 20:39:55 | 98.7342 | 0.00505 | 10.7937 | 106.2135 | 286.4682 | 14.17780 | – |
| 2026 Apr 25 17:58 | 2026 Apr 22 20:39:55 | 98.7342 | 0.00505 | 10.7937 | 106.2135 | 286.4682 | 14.17780 | – |
| 2026 Apr 24 17:59 | 2026 Apr 22 20:39:55 | 98.7342 | 0.00505 | 10.7937 | 106.2135 | 286.4682 | 14.17780 | – |
| 2026 Apr 23 17:57 | 2026 Apr 16 20:41:35 | 98.7354 | 0.00506 | 10.4004 | 122.8785 | 286.4682 | 14.17780 | – |
| 2026 Apr 22 17:57 | 2026 Apr 16 20:41:35 | 98.7354 | 0.00506 | 10.4004 | 122.8785 | 286.4682 | 14.17780 | – |
| 2026 Apr 21 17:57 | 2026 Apr 16 20:41:35 | 98.7354 | 0.00506 | 10.4004 | 122.8785 | 286.4682 | 14.17780 | – |
| 2026 Apr 20 17:57 | 2026 Apr 16 20:41:35 | 98.7354 | 0.00506 | 10.4004 | 122.8785 | 286.4682 | 14.17780 | – |
| 2026 Apr 19 17:58 | 2026 Apr 16 20:41:35 | 98.7354 | 0.00506 | 10.4004 | 122.8785 | 286.4682 | 14.17780 | – |
| 2026 Apr 18 17:56 | 2026 Apr 12 09:59:00 | 98.7360 | 0.00505 | 10.1088 | 135.2277 | 286.4682 | 14.17780 | – |
| 2026 Apr 16 17:57 | 2026 Apr 12 09:59:00 | 98.7360 | 0.00505 | 10.1088 | 135.2277 | 286.4682 | 14.17780 | – |
| 2026 Apr 14 17:57 | 2026 Apr 12 09:59:00 | 98.7360 | 0.00505 | 10.1088 | 135.2277 | 286.4682 | 14.17780 | – |
| 2026 Apr 13 17:57 | 2026 Apr 12 09:59:00 | 98.7360 | 0.00505 | 10.1088 | 135.2277 | 286.4682 | 14.17780 | – |
| 2026 Apr 12 17:57 | 2026 Apr 07 09:43:21 | 98.7366 | 0.00504 | 9.7802 | 149.1522 | 286.4682 | 14.17780 | – |